createdAt,value
2016-10-24T00:00:58.427Z,0
2016-10-24T00:01:58.427Z,0
2016-10-24T00:02:58.451Z,0
2016-10-24T00:03:58.461Z,0
2016-10-24T00:04:58.487Z,0
2016-10-24T00:05:58.488Z,0
2016-10-24T00:06:58.493Z,0
2016-10-24T00:07:58.513Z,0
2016-10-24T00:08:58.562Z,0
2016-10-24T00:09:58.607Z,0
2016-10-24T00:10:58.595Z,0
2016-10-24T00:11:58.573Z,0
2016-10-24T00:12:58.605Z,0
2016-10-24T00:13:58.613Z,0
2016-10-24T00:14:58.623Z,0
2016-10-24T00:15:58.644Z,0
2016-10-24T00:16:59.030Z,0
2016-10-24T00:17:58.677Z,0
2016-10-24T00:18:58.701Z,0
2016-10-24T00:19:58.716Z,0
2016-10-24T00:20:58.711Z,0
2016-10-24T00:21:58.747Z,0
2016-10-24T00:22:58.755Z,0
2016-10-24T00:23:58.776Z,0
2016-10-24T00:24:58.771Z,0
2016-10-24T00:25:58.800Z,0
2016-10-24T00:26:58.795Z,0
2016-10-24T00:27:58.831Z,0
2016-10-24T00:28:58.848Z,0
2016-10-24T00:29:58.869Z,0
2016-10-24T00:30:58.894Z,0
2016-10-24T00:31:58.905Z,0
2016-10-24T00:32:58.893Z,0
2016-10-24T00:33:58.912Z,0
2016-10-24T00:34:58.931Z,0
2016-10-24T00:35:58.963Z,0
2016-10-24T00:36:58.972Z,0
2016-10-24T00:37:58.990Z,0
2016-10-24T00:38:59.003Z,0
2016-10-24T00:39:59.029Z,0
2016-10-24T00:40:59.024Z,0
2016-10-24T00:41:59.053Z,0
2016-10-24T00:42:59.062Z,0
2016-10-24T00:43:59.070Z,0
2016-10-24T00:44:59.079Z,0
2016-10-24T00:45:59.100Z,0
2016-10-24T00:46:59.135Z,0
2016-10-24T00:47:59.162Z,0
2016-10-24T00:48:59.147Z,0
2016-10-24T00:49:59.163Z,0
2016-10-24T00:50:59.185Z,0
2016-10-24T00:51:59.197Z,0
2016-10-24T00:52:59.213Z,0
2016-10-24T00:53:59.275Z,0
2016-10-24T00:54:59.336Z,0
2016-10-24T00:55:59.319Z,0
2016-10-24T00:56:59.313Z,0
2016-10-24T00:57:59.327Z,0
2016-10-24T00:58:59.337Z,0
2016-10-24T00:59:59.328Z,0
2016-10-24T01:00:59.331Z,0
2016-10-24T01:01:59.338Z,0
2016-10-24T01:02:59.375Z,0
2016-10-24T01:03:59.382Z,0
2016-10-24T01:04:59.412Z,0
2016-10-24T01:05:59.395Z,0
2016-10-24T01:06:59.434Z,0
2016-10-24T01:07:59.440Z,0
2016-10-24T01:08:59.494Z,0
2016-10-24T01:09:59.495Z,0
2016-10-24T01:10:59.494Z,0
2016-10-24T01:11:59.510Z,0
2016-10-24T01:12:59.502Z,0
2016-10-24T01:13:59.553Z,0
2016-10-24T01:14:59.594Z,0
2016-10-24T01:15:59.547Z,0
2016-10-24T01:16:59.587Z,0
2016-10-24T01:17:59.624Z,0
2016-10-24T01:18:59.602Z,0
2016-10-24T01:19:59.662Z,0
2016-10-24T01:20:59.639Z,0
2016-10-24T01:21:59.648Z,0
2016-10-24T01:22:59.683Z,0
2016-10-24T01:23:59.689Z,0
2016-10-24T01:24:59.701Z,0
2016-10-24T01:25:59.729Z,0
2016-10-24T01:26:59.723Z,0
2016-10-24T01:27:59.769Z,0
2016-10-24T01:28:59.775Z,0
2016-10-24T01:29:59.769Z,0
2016-10-24T01:30:59.808Z,0
2016-10-24T01:31:59.796Z,0
2016-10-24T01:32:59.831Z,0
2016-10-24T01:33:59.852Z,0
2016-10-24T01:34:59.878Z,0
2016-10-24T01:35:59.879Z,0
2016-10-24T01:36:59.891Z,0
2016-10-24T01:37:59.887Z,0
2016-10-24T01:38:59.932Z,0
2016-10-24T01:39:59.946Z,0
2016-10-24T01:40:59.947Z,0
2016-10-24T01:41:59.966Z,0
2016-10-24T01:42:59.984Z,0
2016-10-24T01:43:59.988Z,0
2016-10-24T01:45:00.019Z,0
2016-10-24T01:46:00.029Z,0
2016-10-24T01:47:00.045Z,0
2016-10-24T01:48:00.077Z,0
2016-10-24T01:49:00.078Z,0
2016-10-24T01:50:00.099Z,0
2016-10-24T01:51:00.101Z,0
2016-10-24T01:52:00.120Z,0
2016-10-24T01:53:00.173Z,0
2016-10-24T01:54:00.208Z,0
2016-10-24T01:55:00.211Z,0
2016-10-24T01:56:00.205Z,0
2016-10-24T01:57:00.209Z,0
2016-10-24T01:58:00.218Z,0
2016-10-24T01:59:00.224Z,0
2016-10-24T02:00:00.256Z,0
2016-10-24T02:01:00.265Z,0
2016-10-24T02:02:00.271Z,0
2016-10-24T02:03:00.285Z,0
2016-10-24T02:04:00.357Z,0
2016-10-24T02:05:00.315Z,0
2016-10-24T02:06:00.336Z,0
2016-10-24T02:07:00.365Z,0
2016-10-24T02:08:00.356Z,0
2016-10-24T02:09:00.365Z,0
2016-10-24T02:10:00.394Z,0
2016-10-24T02:11:00.412Z,0
2016-10-24T02:12:00.419Z,0
2016-10-24T02:13:00.443Z,0
2016-10-24T02:14:00.468Z,0
2016-10-24T02:15:00.503Z,0
2016-10-24T02:16:00.506Z,0
2016-10-24T02:17:00.504Z,0
2016-10-24T02:18:00.506Z,0
2016-10-24T02:19:00.525Z,0
2016-10-24T02:20:00.528Z,0
2016-10-24T02:21:00.566Z,0
2016-10-24T02:22:00.625Z,0
2016-10-24T02:23:00.599Z,0
2016-10-24T02:24:00.633Z,0
2016-10-24T02:25:00.630Z,0
2016-10-24T02:26:00.678Z,0
2016-10-24T02:27:00.665Z,0
2016-10-24T02:28:00.673Z,0
2016-10-24T02:29:00.701Z,0
2016-10-24T02:30:00.722Z,0
2016-10-24T02:31:00.715Z,0
2016-10-24T02:32:00.737Z,0
2016-10-24T02:33:00.730Z,0
2016-10-24T02:34:00.772Z,0
2016-10-24T02:35:00.783Z,0
2016-10-24T02:36:00.781Z,0
2016-10-24T02:37:00.801Z,0
2016-10-24T02:38:00.833Z,0
2016-10-24T02:39:00.830Z,0
2016-10-24T02:40:00.847Z,0
2016-10-24T02:41:00.887Z,0
2016-10-24T02:42:00.928Z,0
2016-10-24T02:43:00.887Z,0
2016-10-24T02:44:00.931Z,0
2016-10-24T02:45:00.924Z,0
2016-10-24T02:46:00.956Z,0
2016-10-24T02:47:00.999Z,0
2016-10-24T02:48:00.992Z,0
2016-10-24T02:49:00.987Z,0
2016-10-24T02:50:01.011Z,0
2016-10-24T02:51:01.031Z,0
2016-10-24T02:52:01.033Z,0
2016-10-24T02:53:01.054Z,0
2016-10-24T02:54:01.069Z,0
2016-10-24T02:55:01.091Z,0
2016-10-24T02:56:01.103Z,0
2016-10-24T02:57:01.105Z,0
2016-10-24T02:58:01.130Z,0
2016-10-24T02:59:01.161Z,0
2016-10-24T03:00:01.161Z,0
2016-10-24T03:01:01.191Z,0
2016-10-24T03:02:01.178Z,0
2016-10-24T03:03:01.217Z,0
2016-10-24T03:04:01.224Z,0
2016-10-24T03:05:01.259Z,0
2016-10-24T03:06:01.257Z,0
2016-10-24T03:07:01.285Z,0
2016-10-24T03:08:01.291Z,0
2016-10-24T03:09:01.309Z,0
2016-10-24T03:10:01.317Z,0
2016-10-24T03:11:01.343Z,0
2016-10-24T03:12:01.353Z,0
2016-10-24T03:13:01.346Z,0
2016-10-24T03:14:01.371Z,0
2016-10-24T03:15:01.403Z,0
2016-10-24T03:16:01.401Z,0
2016-10-24T03:17:01.429Z,0
2016-10-24T03:18:01.434Z,0
2016-10-24T03:19:01.456Z,0
2016-10-24T03:20:01.484Z,0
2016-10-24T03:21:01.494Z,0
2016-10-24T03:22:01.508Z,0
2016-10-24T03:23:01.539Z,0
2016-10-24T03:24:01.531Z,0
2016-10-24T03:25:01.552Z,0
2016-10-24T03:26:01.568Z,0
2016-10-24T03:27:01.575Z,0
2016-10-24T03:28:01.596Z,0
2016-10-24T03:29:01.617Z,0
2016-10-24T03:30:01.623Z,0
2016-10-24T03:31:01.629Z,0
2016-10-24T03:32:01.671Z,0
2016-10-24T03:33:01.666Z,0
2016-10-24T03:34:01.668Z,0
2016-10-24T03:35:01.692Z,0
2016-10-24T03:36:01.719Z,0
2016-10-24T03:37:01.734Z,0
2016-10-24T03:38:01.750Z,0
2016-10-24T03:39:01.766Z,0
2016-10-24T03:40:01.812Z,0
2016-10-24T03:41:01.803Z,0
2016-10-24T03:42:01.799Z,0
2016-10-24T03:43:01.882Z,0
2016-10-24T03:44:01.841Z,0
2016-10-24T03:45:01.852Z,0
2016-10-24T03:46:01.884Z,0
2016-10-24T03:47:01.885Z,0
2016-10-24T03:48:01.907Z,0
2016-10-24T03:49:01.931Z,0
2016-10-24T03:50:01.933Z,0
2016-10-24T03:51:01.978Z,0
2016-10-24T03:52:01.963Z,0
2016-10-24T03:53:01.976Z,0
2016-10-24T03:54:02.000Z,0
2016-10-24T03:55:01.982Z,0
2016-10-24T03:56:02.029Z,0
2016-10-24T03:57:02.050Z,0
2016-10-24T03:58:02.038Z,0
2016-10-24T03:59:02.072Z,0
2016-10-24T04:01:16.970Z,0
2016-10-24T04:02:02.150Z,0
2016-10-24T04:03:02.246Z,0
2016-10-24T04:04:02.163Z,0
2016-10-24T04:05:02.271Z,0
2016-10-24T04:06:02.193Z,0
2016-10-24T04:07:02.251Z,0
2016-10-24T04:08:02.231Z,0
2016-10-24T04:09:02.275Z,0
2016-10-24T04:10:02.265Z,0
2016-10-24T04:11:02.357Z,0
2016-10-24T04:12:02.294Z,0
2016-10-24T04:13:02.403Z,0
2016-10-24T04:14:02.325Z,0
2016-10-24T04:15:02.357Z,0
2016-10-24T04:16:02.356Z,0
2016-10-24T04:17:02.404Z,0
2016-10-24T04:18:02.379Z,0
2016-10-24T04:19:02.412Z,0
2016-10-24T04:20:02.428Z,0
2016-10-24T04:21:02.430Z,0
2016-10-24T04:22:02.449Z,0
2016-10-24T04:23:02.481Z,0
2016-10-24T04:24:02.483Z,0
2016-10-24T04:25:02.493Z,0
2016-10-24T04:26:02.518Z,0
2016-10-24T04:27:02.530Z,0
2016-10-24T04:28:02.546Z,0
2016-10-24T04:29:02.552Z,0
2016-10-24T04:30:02.568Z,0
2016-10-24T04:31:02.584Z,0
2016-10-24T04:32:02.612Z,0
2016-10-24T04:33:02.590Z,0
2016-10-24T04:34:02.617Z,0
2016-10-24T04:35:02.649Z,0
2016-10-24T04:36:02.658Z,0
2016-10-24T04:37:02.671Z,0
2016-10-24T04:38:02.681Z,0
2016-10-24T04:39:02.711Z,0
2016-10-24T04:40:02.709Z,0
2016-10-24T04:41:02.751Z,0
2016-10-24T04:42:02.749Z,0
2016-10-24T04:43:02.786Z,0
2016-10-24T04:44:02.784Z,0
2016-10-24T04:45:02.788Z,0
2016-10-24T04:46:02.804Z,0
2016-10-24T04:47:02.835Z,0
2016-10-24T04:48:02.826Z,0
2016-10-24T04:49:02.871Z,0
2016-10-24T04:50:02.876Z,0
2016-10-24T04:51:02.896Z,0
2016-10-24T04:52:02.905Z,0
2016-10-24T04:53:02.935Z,0
2016-10-24T04:54:02.925Z,0
2016-10-24T04:55:03.001Z,0
2016-10-24T04:56:02.969Z,0
2016-10-24T04:57:02.979Z,0
2016-10-24T04:58:03.011Z,0
2016-10-24T04:59:03.013Z,0
2016-10-24T05:00:03.029Z,0
2016-10-24T05:01:03.034Z,0
2016-10-24T05:02:03.059Z,0
2016-10-24T05:03:03.067Z,0
2016-10-24T05:04:03.092Z,0
2016-10-24T05:05:03.085Z,0
2016-10-24T05:06:03.119Z,0
2016-10-24T05:07:03.123Z,0
2016-10-24T05:08:03.160Z,0
2016-10-24T05:09:03.192Z,0
2016-10-24T05:10:03.168Z,0
2016-10-24T05:11:03.209Z,0
2016-10-24T05:12:03.211Z,0
2016-10-24T05:13:03.237Z,0
2016-10-24T05:14:03.241Z,0
2016-10-24T05:15:03.251Z,0
2016-10-24T05:16:03.294Z,0
2016-10-24T05:17:03.295Z,0
2016-10-24T05:18:03.341Z,0
2016-10-24T05:19:03.315Z,0
2016-10-24T05:20:03.340Z,0
2016-10-24T05:21:03.352Z,0
2016-10-24T05:22:03.400Z,0
2016-10-24T05:23:03.374Z,0
2016-10-24T05:24:03.409Z,0
2016-10-24T05:25:03.407Z,0
2016-10-24T05:26:03.462Z,0
2016-10-24T05:27:03.441Z,0
2016-10-24T05:28:03.451Z,0
2016-10-24T05:29:03.486Z,0
2016-10-24T05:30:03.460Z,0
2016-10-24T05:31:03.508Z,0
2016-10-24T05:32:03.525Z,0
2016-10-24T05:33:03.540Z,0
2016-10-24T05:34:03.545Z,0
2016-10-24T05:35:03.544Z,0
2016-10-24T05:36:03.574Z,0
2016-10-24T05:37:03.602Z,0
2016-10-24T05:38:03.617Z,0
2016-10-24T05:39:03.611Z,0
2016-10-24T05:40:03.645Z,0
2016-10-24T05:41:03.677Z,0
2016-10-24T05:42:03.665Z,0
2016-10-24T05:43:03.686Z,0
2016-10-24T05:44:03.697Z,0
2016-10-24T05:45:03.730Z,0
2016-10-24T05:46:03.731Z,0
2016-10-24T05:47:03.737Z,0
2016-10-24T05:48:03.747Z,0
2016-10-24T05:49:03.774Z,0
2016-10-24T05:50:03.780Z,0
2016-10-24T05:51:03.805Z,0
2016-10-24T05:52:03.821Z,0
2016-10-24T05:53:03.838Z,0
2016-10-24T05:54:03.851Z,0
2016-10-24T05:55:03.851Z,0
2016-10-24T05:56:03.890Z,0
2016-10-24T05:57:03.886Z,0
2016-10-24T05:58:03.958Z,0
2016-10-24T05:59:03.936Z,0
2016-10-24T06:00:03.951Z,0
2016-10-24T06:01:03.964Z,0
2016-10-24T06:02:03.991Z,0
2016-10-24T06:03:04.006Z,0
2016-10-24T06:04:04.005Z,0
2016-10-24T06:05:04.020Z,0
2016-10-24T06:06:04.050Z,0
2016-10-24T06:07:04.041Z,0
2016-10-24T06:08:04.062Z,0
2016-10-24T06:09:04.081Z,0
2016-10-24T06:10:04.118Z,5
2016-10-24T06:11:04.099Z,5
2016-10-24T06:12:04.166Z,5
2016-10-24T06:13:04.146Z,5
2016-10-24T06:14:04.162Z,5
2016-10-24T06:15:04.179Z,5
2016-10-24T06:16:04.211Z,5
2016-10-24T06:17:04.212Z,5
2016-10-24T06:18:04.226Z,5
2016-10-24T06:19:04.257Z,5
2016-10-24T06:20:04.250Z,5
2016-10-24T06:21:04.269Z,5
2016-10-24T06:22:04.273Z,5
2016-10-24T06:23:04.306Z,10
2016-10-24T06:24:04.328Z,10
2016-10-24T06:25:04.339Z,10
2016-10-24T06:26:04.354Z,10
2016-10-24T06:27:04.367Z,10
2016-10-24T06:28:04.368Z,10
2016-10-24T06:29:04.403Z,10
2016-10-24T06:30:04.415Z,10
2016-10-24T06:31:04.419Z,15
2016-10-24T06:32:04.439Z,15
2016-10-24T06:33:04.464Z,15
2016-10-24T06:34:04.455Z,15
2016-10-24T06:35:04.486Z,15
2016-10-24T06:36:04.500Z,15
2016-10-24T06:37:04.499Z,15
2016-10-24T06:38:04.532Z,15
2016-10-24T06:39:04.582Z,20
2016-10-24T06:40:04.562Z,20
2016-10-24T06:41:04.575Z,20
2016-10-24T06:42:04.585Z,20
2016-10-24T06:43:04.616Z,15
2016-10-24T06:44:04.626Z,15
2016-10-24T06:45:04.620Z,15
2016-10-24T06:46:04.652Z,15
2016-10-24T06:47:04.708Z,15
2016-10-24T06:48:04.726Z,15
2016-10-24T06:49:04.715Z,15
2016-10-24T06:50:04.716Z,15
2016-10-24T06:51:04.729Z,15
2016-10-24T06:52:04.735Z,15
2016-10-24T06:53:04.781Z,20
2016-10-24T06:54:04.789Z,20
2016-10-24T06:55:04.788Z,20
2016-10-24T06:56:04.848Z,20
2016-10-24T06:57:04.815Z,20
2016-10-24T06:58:04.835Z,20
2016-10-24T06:59:04.852Z,20
2016-10-24T07:00:04.914Z,20
2016-10-24T07:01:04.880Z,20
2016-10-24T07:02:04.899Z,25
2016-10-24T07:03:04.936Z,25
2016-10-24T07:04:04.937Z,30
2016-10-24T07:05:04.945Z,30
2016-10-24T07:06:04.963Z,35
2016-10-24T07:07:04.973Z,35
2016-10-24T07:08:04.996Z,35
2016-10-24T07:09:05.017Z,30
2016-10-24T07:10:05.011Z,30
2016-10-24T07:11:05.037Z,25
2016-10-24T07:12:05.099Z,25
2016-10-24T07:13:05.070Z,25
2016-10-24T07:14:05.111Z,25
2016-10-24T07:15:05.117Z,25
2016-10-24T07:16:05.122Z,25
2016-10-24T07:17:05.134Z,25
2016-10-24T07:18:05.145Z,25
2016-10-24T07:19:05.174Z,25
2016-10-24T07:20:05.189Z,25
2016-10-24T07:21:05.193Z,25
2016-10-24T07:22:05.219Z,25
2016-10-24T07:23:05.217Z,25
2016-10-24T07:24:05.256Z,25
2016-10-24T07:25:05.279Z,30
2016-10-24T07:26:05.295Z,30
2016-10-24T07:27:05.299Z,30
2016-10-24T07:28:05.299Z,30
2016-10-24T07:29:05.324Z,35
2016-10-24T07:30:05.358Z,35
2016-10-24T07:31:05.362Z,35
2016-10-24T07:32:05.376Z,40
2016-10-24T07:33:05.400Z,40
2016-10-24T07:34:05.418Z,40
2016-10-24T07:35:05.430Z,40
2016-10-24T07:36:05.420Z,40
2016-10-24T07:37:05.455Z,35
2016-10-24T07:38:05.461Z,35
2016-10-24T07:39:05.472Z,35
2016-10-24T07:40:05.537Z,35
2016-10-24T07:41:05.524Z,35
2016-10-24T07:42:05.532Z,35
2016-10-24T07:43:05.550Z,35
2016-10-24T07:44:05.560Z,35
2016-10-24T07:45:05.579Z,40
2016-10-24T07:46:05.619Z,35
2016-10-24T07:47:05.610Z,35
2016-10-24T07:48:05.614Z,35
2016-10-24T07:49:05.641Z,35
2016-10-24T07:50:05.672Z,35
2016-10-24T07:51:05.741Z,35
2016-10-24T07:52:06.073Z,30
2016-10-24T07:53:05.747Z,30
2016-10-24T07:54:05.718Z,30
2016-10-24T07:55:05.745Z,30
2016-10-24T07:56:05.758Z,30
2016-10-24T07:57:05.750Z,30
2016-10-24T07:58:05.776Z,35
2016-10-24T07:59:05.796Z,35
2016-10-24T08:00:05.837Z,35
2016-10-24T08:01:20.702Z,40
2016-10-24T08:02:05.848Z,40
2016-10-24T08:03:05.876Z,40
2016-10-24T08:04:05.909Z,45
2016-10-24T08:05:05.939Z,45
2016-10-24T08:06:05.964Z,40
2016-10-24T08:07:05.956Z,40
2016-10-24T08:08:05.958Z,40
2016-10-24T08:09:05.957Z,35
2016-10-24T08:10:05.975Z,35
2016-10-24T08:11:05.980Z,30
2016-10-24T08:12:06.013Z,30
2016-10-24T08:13:06.048Z,30
2016-10-24T08:14:06.059Z,30
2016-10-24T08:15:06.104Z,30
2016-10-24T08:16:06.104Z,35
2016-10-24T08:17:06.091Z,35
2016-10-24T08:18:06.108Z,40
2016-10-24T08:19:06.123Z,40
2016-10-24T08:20:06.125Z,45
2016-10-24T08:21:06.159Z,45
2016-10-24T08:22:06.160Z,40
2016-10-24T08:23:06.182Z,40
2016-10-24T08:24:06.228Z,35
2016-10-24T08:25:06.208Z,35
2016-10-24T08:26:06.271Z,35
2016-10-24T08:27:06.275Z,35
2016-10-24T08:28:06.299Z,35
2016-10-24T08:29:06.294Z,30
2016-10-24T08:30:06.302Z,30
2016-10-24T08:31:06.303Z,30
2016-10-24T08:32:06.328Z,30
2016-10-24T08:33:06.341Z,30
2016-10-24T08:34:06.334Z,30
2016-10-24T08:35:06.390Z,30
2016-10-24T08:36:06.401Z,30
2016-10-24T08:37:06.417Z,30
2016-10-24T08:38:06.418Z,30
2016-10-24T08:39:06.450Z,30
2016-10-24T08:40:06.464Z,30
2016-10-24T08:41:06.460Z,30
2016-10-24T08:42:06.482Z,30
2016-10-24T08:43:06.484Z,30
2016-10-24T08:44:06.520Z,30
2016-10-24T08:45:06.576Z,30
2016-10-24T08:46:06.552Z,30
2016-10-24T08:47:06.555Z,30
2016-10-24T08:48:06.578Z,30
2016-10-24T08:49:06.586Z,30
2016-10-24T08:50:06.625Z,30
2016-10-24T08:51:06.618Z,30
2016-10-24T08:52:06.648Z,25
2016-10-24T08:53:06.664Z,25
2016-10-24T08:54:06.665Z,30
2016-10-24T08:55:06.681Z,30
2016-10-24T08:56:06.702Z,30
2016-10-24T08:57:06.738Z,25
2016-10-24T08:58:06.741Z,25
2016-10-24T08:59:06.741Z,25
2016-10-24T09:00:06.781Z,25
2016-10-24T09:01:06.795Z,25
2016-10-24T09:02:06.840Z,30
2016-10-24T09:03:06.826Z,30
2016-10-24T09:04:06.850Z,30
2016-10-24T09:05:06.820Z,30
2016-10-24T09:06:06.863Z,30
2016-10-24T09:07:06.868Z,30
2016-10-24T09:08:06.887Z,30
2016-10-24T09:09:06.914Z,30
2016-10-24T09:10:06.931Z,30
2016-10-24T09:11:06.948Z,30
2016-10-24T09:12:06.974Z,30
2016-10-24T09:13:06.978Z,30
2016-10-24T09:14:06.969Z,30
2016-10-24T09:15:07.035Z,35
2016-10-24T09:16:07.037Z,35
2016-10-24T09:17:07.087Z,35
2016-10-24T09:18:07.075Z,35
2016-10-24T09:19:07.077Z,35
2016-10-24T09:20:07.097Z,35
2016-10-24T09:21:07.113Z,40
2016-10-24T09:22:07.114Z,40
2016-10-24T09:23:07.148Z,40
2016-10-24T09:24:07.169Z,40
2016-10-24T09:25:07.165Z,45
2016-10-24T09:26:07.195Z,45
2016-10-24T09:27:07.184Z,45
2016-10-24T09:28:07.206Z,45
2016-10-24T09:29:07.233Z,45
2016-10-24T09:30:07.262Z,45
2016-10-24T09:31:07.251Z,45
2016-10-24T09:32:07.296Z,45
2016-10-24T09:33:07.348Z,45
2016-10-24T09:34:07.318Z,50
2016-10-24T09:35:07.342Z,50
2016-10-24T09:36:07.380Z,50
2016-10-24T09:37:07.346Z,50
2016-10-24T09:38:07.394Z,50
2016-10-24T09:39:07.404Z,50
2016-10-24T09:40:07.401Z,50
2016-10-24T09:41:07.437Z,50
2016-10-24T09:42:07.441Z,50
2016-10-24T09:43:07.501Z,50
2016-10-24T09:44:07.478Z,50
2016-10-24T09:45:07.485Z,50
2016-10-24T09:46:07.529Z,55
2016-10-24T09:47:07.558Z,55
2016-10-24T09:48:07.571Z,55
2016-10-24T09:49:07.560Z,60
2016-10-24T09:50:07.581Z,60
2016-10-24T09:51:07.566Z,60
2016-10-24T09:52:07.592Z,60
2016-10-24T09:53:07.611Z,60
2016-10-24T09:54:07.615Z,60
2016-10-24T09:55:07.624Z,55
2016-10-24T09:56:07.674Z,55
2016-10-24T09:57:07.672Z,50
2016-10-24T09:58:07.680Z,45
2016-10-24T09:59:07.735Z,45
2016-10-24T10:00:07.724Z,40
2016-10-24T10:01:07.749Z,40
2016-10-24T10:02:07.759Z,35
2016-10-24T10:03:07.814Z,35
2016-10-24T10:04:07.829Z,35
2016-10-24T10:05:07.801Z,35
2016-10-24T10:06:07.849Z,35
2016-10-24T10:07:07.873Z,35
2016-10-24T10:08:07.879Z,35
2016-10-24T10:09:07.915Z,35
2016-10-24T10:10:07.941Z,40
2016-10-24T10:11:07.945Z,40
2016-10-24T10:12:07.950Z,40
2016-10-24T10:13:07.946Z,40
2016-10-24T10:14:07.977Z,40
2016-10-24T10:15:07.965Z,40
2016-10-24T10:16:08.312Z,40
2016-10-24T10:17:08.047Z,40
2016-10-24T10:18:08.041Z,45
2016-10-24T10:19:08.082Z,45
2016-10-24T10:20:08.077Z,45
2016-10-24T10:21:08.134Z,45
2016-10-24T10:22:08.125Z,45
2016-10-24T10:23:08.141Z,45
2016-10-24T10:24:08.145Z,40
2016-10-24T10:25:08.156Z,40
2016-10-24T10:26:08.177Z,40
2016-10-24T10:27:08.166Z,40
2016-10-24T10:28:08.171Z,35
2016-10-24T10:29:08.204Z,35
2016-10-24T10:30:08.248Z,35
2016-10-24T10:31:08.250Z,35
2016-10-24T10:32:08.279Z,35
2016-10-24T10:33:08.269Z,35
2016-10-24T10:34:08.292Z,35
2016-10-24T10:35:08.341Z,35
2016-10-24T10:36:08.318Z,35
2016-10-24T10:37:08.335Z,35
2016-10-24T10:38:08.353Z,35
2016-10-24T10:39:08.356Z,35
2016-10-24T10:40:08.375Z,35
2016-10-24T10:41:08.399Z,35
2016-10-24T10:42:08.415Z,35
2016-10-24T10:43:08.417Z,35
2016-10-24T10:44:08.454Z,35
2016-10-24T10:45:08.462Z,30
2016-10-24T10:46:08.479Z,30
2016-10-24T10:47:08.498Z,30
2016-10-24T10:48:08.522Z,30
2016-10-24T10:49:08.515Z,30
2016-10-24T10:50:08.585Z,30
2016-10-24T10:51:08.603Z,30
2016-10-24T10:52:08.601Z,30
2016-10-24T10:53:08.603Z,30
2016-10-24T10:54:08.620Z,30
2016-10-24T10:55:08.607Z,30
2016-10-24T10:56:08.692Z,30
2016-10-24T10:57:08.659Z,30
2016-10-24T10:58:08.667Z,30
2016-10-24T10:59:08.681Z,30
2016-10-24T11:00:08.743Z,30
2016-10-24T11:01:08.771Z,30
2016-10-24T11:02:08.722Z,30
2016-10-24T11:03:08.775Z,30
2016-10-24T11:04:08.813Z,30
2016-10-24T11:05:08.789Z,30
2016-10-24T11:06:08.802Z,30
2016-10-24T11:07:08.822Z,30
2016-10-24T11:08:08.831Z,30
2016-10-24T11:09:08.851Z,35
2016-10-24T11:10:08.902Z,35
2016-10-24T11:11:08.869Z,35
2016-10-24T11:12:08.890Z,35
2016-10-24T11:13:08.908Z,35
2016-10-24T11:14:08.933Z,35
2016-10-24T11:15:08.937Z,35
2016-10-24T11:16:08.963Z,30
2016-10-24T11:17:08.987Z,30
2016-10-24T11:18:09.008Z,30
2016-10-24T11:19:09.029Z,35
2016-10-24T11:20:09.023Z,35
2016-10-24T11:21:09.048Z,35
2016-10-24T11:22:09.075Z,35
2016-10-24T11:23:09.075Z,35
2016-10-24T11:24:09.077Z,35
2016-10-24T11:25:09.118Z,35
2016-10-24T11:26:09.117Z,30
2016-10-24T11:27:09.147Z,30
2016-10-24T11:28:09.150Z,30
2016-10-24T11:29:09.174Z,30
2016-10-24T11:30:09.183Z,30
2016-10-24T11:31:09.242Z,30
2016-10-24T11:32:09.226Z,30
2016-10-24T11:33:09.242Z,30
2016-10-24T11:34:09.242Z,30
2016-10-24T11:35:09.279Z,30
2016-10-24T11:36:09.285Z,30
2016-10-24T11:37:09.310Z,35
2016-10-24T11:38:09.325Z,35
2016-10-24T11:39:09.329Z,35
2016-10-24T11:40:09.375Z,35
2016-10-24T11:41:09.352Z,35
2016-10-24T11:42:09.376Z,35
2016-10-24T11:43:09.429Z,35
2016-10-24T11:44:09.429Z,35
2016-10-24T11:45:09.435Z,35
2016-10-24T11:46:09.464Z,30
2016-10-24T11:47:09.492Z,30
2016-10-24T11:48:09.469Z,30
2016-10-24T11:49:09.505Z,30
2016-10-24T11:50:09.533Z,25
2016-10-24T11:51:09.534Z,25
2016-10-24T11:52:09.574Z,25
2016-10-24T11:53:09.560Z,25
2016-10-24T11:54:09.581Z,25
2016-10-24T11:55:09.578Z,25
2016-10-24T11:56:09.596Z,25
2016-10-24T11:57:09.627Z,25
2016-10-24T11:58:09.639Z,25
2016-10-24T11:59:09.668Z,25
2016-10-24T12:00:09.679Z,30
2016-10-24T12:01:09.695Z,30
2016-10-24T12:02:09.710Z,35
2016-10-24T12:03:09.731Z,35
2016-10-24T12:04:09.759Z,40
2016-10-24T12:05:09.755Z,40
2016-10-24T12:06:09.792Z,40
2016-10-24T12:07:09.783Z,40
2016-10-24T12:08:09.803Z,40
2016-10-24T12:09:09.828Z,40
2016-10-24T12:10:09.837Z,40
2016-10-24T12:11:09.841Z,40
2016-10-24T12:12:09.879Z,40
2016-10-24T12:13:09.878Z,40
2016-10-24T12:14:09.904Z,40
2016-10-24T12:15:09.916Z,40
2016-10-24T12:16:09.959Z,40
2016-10-24T12:17:09.967Z,40
2016-10-24T12:18:09.983Z,35
2016-10-24T12:19:09.984Z,35
2016-10-24T12:20:10.019Z,35
2016-10-24T12:21:10.023Z,35
2016-10-24T12:22:10.044Z,35
2016-10-24T12:23:10.052Z,35
2016-10-24T12:24:10.073Z,35
2016-10-24T12:25:10.071Z,35
2016-10-24T12:26:10.131Z,35
2016-10-24T12:27:10.155Z,35
2016-10-24T12:28:10.147Z,35
2016-10-24T12:29:10.176Z,35
2016-10-24T12:30:10.312Z,35
2016-10-24T12:31:10.634Z,35
2016-10-24T12:32:10.197Z,35
2016-10-24T12:33:10.216Z,35
2016-10-24T12:34:11.238Z,40
2016-10-24T12:35:10.250Z,40
2016-10-24T12:36:10.258Z,40
2016-10-24T12:37:10.276Z,40
2016-10-24T12:38:10.310Z,40
2016-10-24T12:39:10.323Z,45
2016-10-24T12:40:10.331Z,45
2016-10-24T12:41:10.325Z,45
2016-10-24T12:42:10.368Z,50
2016-10-24T12:43:10.376Z,50
2016-10-24T12:44:10.399Z,50
2016-10-24T12:45:10.417Z,50
2016-10-24T12:46:10.428Z,50
2016-10-24T12:47:10.441Z,45
2016-10-24T12:48:10.493Z,45
2016-10-24T12:49:10.483Z,45
2016-10-24T12:50:10.519Z,40
2016-10-24T12:51:10.497Z,40
2016-10-24T12:52:10.561Z,40
2016-10-24T12:53:10.546Z,40
2016-10-24T12:54:10.559Z,40
2016-10-24T12:55:10.576Z,40
2016-10-24T12:56:10.586Z,40
2016-10-24T12:57:10.595Z,45
2016-10-24T12:58:10.675Z,45
2016-10-24T12:59:10.675Z,45
2016-10-24T13:00:10.650Z,45
2016-10-24T13:01:10.695Z,40
2016-10-24T13:02:10.742Z,40
2016-10-24T13:03:10.693Z,35
2016-10-24T13:04:10.711Z,35
2016-10-24T13:05:10.781Z,35
2016-10-24T13:06:10.796Z,35
2016-10-24T13:07:10.775Z,35
2016-10-24T13:08:10.838Z,30
2016-10-24T13:09:10.795Z,30
2016-10-24T13:10:10.848Z,30
2016-10-24T13:11:10.828Z,30
2016-10-24T13:12:10.842Z,30
2016-10-24T13:13:10.846Z,35
2016-10-24T13:14:10.880Z,35
2016-10-24T13:15:10.885Z,35
2016-10-24T13:16:11.244Z,35
2016-10-24T13:17:10.931Z,40
2016-10-24T13:18:10.934Z,40
2016-10-24T13:19:10.968Z,45
2016-10-24T13:20:10.967Z,45
2016-10-24T13:21:10.980Z,45
2016-10-24T13:22:10.992Z,45
2016-10-24T13:23:11.017Z,45
2016-10-24T13:24:11.036Z,40
2016-10-24T13:25:11.053Z,40
2016-10-24T13:26:11.080Z,40
2016-10-24T13:27:11.084Z,40
2016-10-24T13:28:11.100Z,40
2016-10-24T13:29:11.134Z,40
2016-10-24T13:30:11.120Z,40
2016-10-24T13:31:11.152Z,40
2016-10-24T13:32:11.174Z,40
2016-10-24T13:33:11.182Z,45
2016-10-24T13:34:11.200Z,45
2016-10-24T13:35:11.190Z,45
2016-10-24T13:36:11.247Z,40
2016-10-24T13:37:11.266Z,40
2016-10-24T13:38:11.264Z,40
2016-10-24T13:39:11.317Z,40
2016-10-24T13:40:11.293Z,40
2016-10-24T13:41:11.315Z,35
2016-10-24T13:42:11.379Z,35
2016-10-24T13:43:11.351Z,30
2016-10-24T13:44:11.358Z,30
2016-10-24T13:45:11.414Z,30
2016-10-24T13:46:11.398Z,30
2016-10-24T13:47:11.417Z,30
2016-10-24T13:48:11.424Z,30
2016-10-24T13:49:11.446Z,30
2016-10-24T13:50:11.514Z,30
2016-10-24T13:51:11.472Z,30
2016-10-24T13:52:11.532Z,35
2016-10-24T13:53:11.517Z,35
2016-10-24T13:54:11.537Z,35
2016-10-24T13:55:11.559Z,30
2016-10-24T13:56:11.577Z,30
2016-10-24T13:57:11.596Z,30
2016-10-24T13:58:11.592Z,30
2016-10-24T13:59:11.634Z,30
2016-10-24T14:00:11.623Z,25
2016-10-24T14:01:11.693Z,25
2016-10-24T14:02:11.670Z,25
2016-10-24T14:03:11.678Z,25
2016-10-24T14:04:11.740Z,30
2016-10-24T14:05:11.697Z,30
2016-10-24T14:06:11.730Z,30
2016-10-24T14:07:11.744Z,30
2016-10-24T14:08:11.744Z,35
2016-10-24T14:09:11.757Z,35
2016-10-24T14:10:11.780Z,35
2016-10-24T14:11:11.806Z,35
2016-10-24T14:12:11.836Z,35
2016-10-24T14:13:11.855Z,35
2016-10-24T14:14:11.857Z,40
2016-10-24T14:15:11.865Z,40
2016-10-24T14:16:11.882Z,40
2016-10-24T14:17:11.956Z,40
2016-10-24T14:18:11.959Z,40
2016-10-24T14:19:11.938Z,40
2016-10-24T14:20:12.298Z,45
2016-10-24T14:21:11.967Z,45
2016-10-24T14:22:11.974Z,45
2016-10-24T14:23:12.001Z,45
2016-10-24T14:24:12.020Z,45
2016-10-24T14:25:12.020Z,40
2016-10-24T14:26:12.067Z,40
2016-10-24T14:27:12.097Z,40
2016-10-24T14:28:12.087Z,35
2016-10-24T14:29:12.135Z,35
2016-10-24T14:30:12.137Z,35
2016-10-24T14:31:12.134Z,35